Huvudsida
METAR-TAF:

METAR-TAF

Flygplatser :

Incheons internationella flygplats

Seoul-Inchon, Sydkorea

latitud: 37-28N, longitud: 126-27E, höjd: 7 m

Aktuellt väderrapport

Denna rapport gjordes för 20 minuter sedan, klockan 09:30 UTC
Vind 7 kt från nord/nordost
Temperatur 21°C
Fuktighet 35%
Tryck 1018 hPa
Sikt 10 km eller mer
Inga moln under 1 500 m eller inga cumulonimbus

METAR: RKSI 250930Z 02007KT CAVOK 21/05 Q1018 NOSIG

Tid: 18:50 (09:50 UTC)

Väderprognos

Denna rapport gjordes för 4 timmar och 50 minuter sedan, klockan 05:00 UTC
Prognos gäller från 25 kl. 06 UTC till 26 kl. 12 UTC
Vind 7 kt från nord/nordväst
Sikt 10 km eller mer
Få moln på en höjd av 3000 ft
Spridda moln på en höjd av 18000 ft
Blir
från 25 kl. 13 UTC till 25 kl. 14 UTC
Vind 6 kt från ost/sydost
Blir
från 25 kl. 15 UTC till 25 kl. 16 UTC
Vind 7 kt från ost/nordost

TAF: RKSI 250500Z 2506/2612 33007KT 9999 FEW030 SCT180 TN15/2521Z TX23/2605Z BECMG 2513/2514 12006KT BECMG 2515/2516 06007KT

Aktuella väderrapporter och prognoser från 4000 flygplatser (METAR- och TAF-rapporter).

De tillgängliga stationerna syns som gula och röda prickar på kartan.

För musen över prickarna för att se namnen på stationerna.

Klicka sedan för att få väderrapporter och prognoser.

För att ändra kartan: Klicka på de gröna knapparna med ett svart kors på för att zooma in; den gröna knappen med ett streck på för att zooma ut; eller på de gröna pilarna för angränsande kartor.


METAR-TAF: